sensor_id;sensor_type;location;lat;lon;timestamp;P1;durP1;ratioP1;P2;durP2;ratioP2
42904;SDS011;28550;51.228;4.528;2023-04-03T00:00:07;26.08;;;16.13;;
42904;SDS011;28550;51.228;4.528;2023-04-03T00:02:53;29.80;;;16.38;;
42904;SDS011;28550;51.228;4.528;2023-04-03T00:05:26;26.90;;;14.73;;
42904;SDS011;28550;51.228;4.528;2023-04-03T00:07:52;30.88;;;17.45;;
42904;SDS011;28550;51.228;4.528;2023-04-03T00:10:18;24.17;;;15.88;;
42904;SDS011;28550;51.228;4.528;2023-04-03T00:12:47;23.58;;;15.73;;
42904;SDS011;28550;51.228;4.528;2023-04-03T00:15:13;28.23;;;15.90;;
42904;SDS011;28550;51.228;4.528;2023-04-03T00:17:46;26.10;;;16.13;;
42904;SDS011;28550;51.228;4.528;2023-04-03T00:20:19;26.35;;;16.55;;
42904;SDS011;28550;51.228;4.528;2023-04-03T00:22:46;28.95;;;17.08;;
42904;SDS011;28550;51.228;4.528;2023-04-03T00:28:28;24.58;;;15.63;;
42904;SDS011;28550;51.228;4.528;2023-04-03T00:30:58;25.20;;;16.85;;
42904;SDS011;28550;51.228;4.528;2023-04-03T00:33:30;24.65;;;17.35;;
42904;SDS011;28550;51.228;4.528;2023-04-03T00:35:58;27.10;;;17.67;;
42904;SDS011;28550;51.228;4.528;2023-04-03T00:38:23;24.80;;;16.20;;
42904;SDS011;28550;51.228;4.528;2023-04-03T00:40:52;25.83;;;15.52;;
42904;SDS011;28550;51.228;4.528;2023-04-03T00:43:24;23.42;;;15.48;;
42904;SDS011;28550;51.228;4.528;2023-04-03T00:45:55;24.55;;;15.77;;
42904;SDS011;28550;51.228;4.528;2023-04-03T00:51:43;23.77;;;15.50;;
42904;SDS011;28550;51.228;4.528;2023-04-03T00:54:39;23.45;;;16.50;;
42904;SDS011;28550;51.228;4.528;2023-04-03T00:57:52;27.15;;;17.08;;
42904;SDS011;28550;51.228;4.528;2023-04-03T01:00:28;26.45;;;16.50;;
42904;SDS011;28550;51.228;4.528;2023-04-03T01:03:01;28.23;;;17.98;;
42904;SDS011;28550;51.228;4.528;2023-04-03T01:05:31;21.92;;;15.25;;
42904;SDS011;28550;51.228;4.528;2023-04-03T01:07:57;28.77;;;15.52;;
42904;SDS011;28550;51.228;4.528;2023-04-03T01:10:23;27.55;;;16.58;;
42904;SDS011;28550;51.228;4.528;2023-04-03T01:12:53;25.50;;;15.82;;
42904;SDS011;28550;51.228;4.528;2023-04-03T01:15:29;25.63;;;14.95;;
42904;SDS011;28550;51.228;4.528;2023-04-03T01:18:00;23.67;;;15.23;;
42904;SDS011;28550;51.228;4.528;2023-04-03T01:25:42;24.33;;;14.13;;
42904;SDS011;28550;51.228;4.528;2023-04-03T01:28:17;25.20;;;15.32;;
42904;SDS011;28550;51.228;4.528;2023-04-03T01:33:35;21.08;;;14.50;;
42904;SDS011;28550;51.228;4.528;2023-04-03T01:41:42;24.25;;;14.52;;
42904;SDS011;28550;51.228;4.528;2023-04-03T01:44:09;21.63;;;13.48;;
42904;SDS011;28550;51.228;4.528;2023-04-03T01:46:37;20.98;;;14.52;;
42904;SDS011;28550;51.228;4.528;2023-04-03T01:49:07;22.88;;;14.07;;
42904;SDS011;28550;51.228;4.528;2023-04-03T01:57:00;25.17;;;13.50;;
42904;SDS011;28550;51.228;4.528;2023-04-03T01:59:26;21.35;;;14.32;;
42904;SDS011;28550;51.228;4.528;2023-04-03T02:01:53;23.63;;;13.93;;
42904;SDS011;28550;51.228;4.528;2023-04-03T02:04:18;21.65;;;14.93;;
42904;SDS011;28550;51.228;4.528;2023-04-03T02:06:55;23.30;;;14.02;;
42904;SDS011;28550;51.228;4.528;2023-04-03T02:09:24;21.55;;;15.18;;
42904;SDS011;28550;51.228;4.528;2023-04-03T02:11:55;25.15;;;15.88;;
42904;SDS011;28550;51.228;4.528;2023-04-03T02:14:26;23.25;;;14.98;;
42904;SDS011;28550;51.228;4.528;2023-04-03T02:17:06;24.55;;;14.57;;
42904;SDS011;28550;51.228;4.528;2023-04-03T02:19:37;23.55;;;15.45;;
42904;SDS011;28550;51.228;4.528;2023-04-03T02:22:13;23.98;;;14.77;;
42904;SDS011;28550;51.228;4.528;2023-04-03T02:24:46;25.63;;;15.32;;
42904;SDS011;28550;51.228;4.528;2023-04-03T02:27:30;28.70;;;16.02;;
42904;SDS011;28550;51.228;4.528;2023-04-03T02:30:05;26.38;;;16.00;;
42904;SDS011;28550;51.228;4.528;2023-04-03T02:32:36;22.67;;;15.20;;
42904;SDS011;28550;51.228;4.528;2023-04-03T02:35:03;28.70;;;15.05;;
42904;SDS011;28550;51.228;4.528;2023-04-03T02:37:38;24.13;;;14.88;;
42904;SDS011;28550;51.228;4.528;2023-04-03T02:40:29;26.25;;;17.27;;
42904;SDS011;28550;51.228;4.528;2023-04-03T02:43:10;22.63;;;14.90;;
42904;SDS011;28550;51.228;4.528;2023-04-03T02:45:43;22.10;;;15.00;;
42904;SDS011;28550;51.228;4.528;2023-04-03T02:48:14;23.88;;;15.02;;
42904;SDS011;28550;51.228;4.528;2023-04-03T02:50:47;22.23;;;14.50;;
42904;SDS011;28550;51.228;4.528;2023-04-03T02:56:43;25.85;;;16.77;;
42904;SDS011;28550;51.228;4.528;2023-04-03T03:02:25;26.67;;;15.73;;
42904;SDS011;28550;51.228;4.528;2023-04-03T03:04:50;24.00;;;15.20;;
42904;SDS011;28550;51.228;4.528;2023-04-03T03:07:26;22.90;;;15.88;;
42904;SDS011;28550;51.228;4.528;2023-04-03T03:09:56;26.00;;;16.85;;
42904;SDS011;28550;51.228;4.528;2023-04-03T03:12:28;24.80;;;15.77;;
42904;SDS011;28550;51.228;4.528;2023-04-03T03:17:22;27.40;;;16.90;;
42904;SDS011;28550;51.228;4.528;2023-04-03T03:20:06;29.38;;;17.30;;
42904;SDS011;28550;51.228;4.528;2023-04-03T03:22:46;25.67;;;16.75;;
42904;SDS011;28550;51.228;4.528;2023-04-03T03:25:13;26.95;;;15.98;;
42904;SDS011;28550;51.228;4.528;2023-04-03T03:27:47;27.75;;;16.98;;
42904;SDS011;28550;51.228;4.528;2023-04-03T03:30:19;36.35;;;17.75;;
42904;SDS011;28550;51.228;4.528;2023-04-03T03:32:48;28.17;;;17.10;;
42904;SDS011;28550;51.228;4.528;2023-04-03T03:35:23;25.75;;;16.40;;
42904;SDS011;28550;51.228;4.528;2023-04-03T03:38:21;28.02;;;16.95;;
42904;SDS011;28550;51.228;4.528;2023-04-03T03:41:02;26.08;;;16.70;;
42904;SDS011;28550;51.228;4.528;2023-04-03T03:43:37;26.90;;;16.33;;
42904;SDS011;28550;51.228;4.528;2023-04-03T03:46:16;29.63;;;17.65;;
42904;SDS011;28550;51.228;4.528;2023-04-03T03:48:47;25.73;;;16.30;;
42904;SDS011;28550;51.228;4.528;2023-04-03T03:51:23;32.08;;;17.33;;
42904;SDS011;28550;51.228;4.528;2023-04-03T03:54:05;26.25;;;17.02;;
42904;SDS011;28550;51.228;4.528;2023-04-03T03:56:35;27.95;;;18.63;;
42904;SDS011;28550;51.228;4.528;2023-04-03T03:59:11;34.55;;;18.75;;
42904;SDS011;28550;51.228;4.528;2023-04-03T04:01:41;30.90;;;19.42;;
42904;SDS011;28550;51.228;4.528;2023-04-03T04:04:10;17.58;;;12.93;;
42904;SDS011;28550;51.228;4.528;2023-04-03T04:06:36;30.40;;;19.83;;
42904;SDS011;28550;51.228;4.528;2023-04-03T04:09:04;30.75;;;19.42;;
42904;SDS011;28550;51.228;4.528;2023-04-03T04:13:57;31.65;;;18.98;;
42904;SDS011;28550;51.228;4.528;2023-04-03T04:16:38;31.60;;;18.58;;
42904;SDS011;28550;51.228;4.528;2023-04-03T04:19:10;28.27;;;19.50;;
42904;SDS011;28550;51.228;4.528;2023-04-03T04:21:43;30.15;;;18.80;;
42904;SDS011;28550;51.228;4.528;2023-04-03T04:24:20;28.08;;;19.00;;
42904;SDS011;28550;51.228;4.528;2023-04-03T04:26:56;31.90;;;19.20;;
42904;SDS011;28550;51.228;4.528;2023-04-03T04:29:24;27.10;;;19.48;;
42904;SDS011;28550;51.228;4.528;2023-04-03T04:32:01;34.85;;;19.73;;
42904;SDS011;28550;51.228;4.528;2023-04-03T04:34:44;30.35;;;19.10;;
42904;SDS011;28550;51.228;4.528;2023-04-03T04:37:16;30.48;;;19.25;;
42904;SDS011;28550;51.228;4.528;2023-04-03T04:39:51;33.17;;;19.38;;
42904;SDS011;28550;51.228;4.528;2023-04-03T04:42:22;37.17;;;20.88;;
42904;SDS011;28550;51.228;4.528;2023-04-03T04:44:59;33.90;;;20.40;;
42904;SDS011;28550;51.228;4.528;2023-04-03T04:47:29;31.60;;;20.15;;
42904;SDS011;28550;51.228;4.528;2023-04-03T04:49:56;32.67;;;20.73;;
42904;SDS011;28550;51.228;4.528;2023-04-03T04:52:23;36.78;;;23.23;;
42904;SDS011;28550;51.228;4.528;2023-04-03T04:54:49;40.13;;;21.10;;
42904;SDS011;28550;51.228;4.528;2023-04-03T04:57:17;30.45;;;19.92;;
42904;SDS011;28550;51.228;4.528;2023-04-03T04:59:50;31.40;;;20.17;;
42904;SDS011;28550;51.228;4.528;2023-04-03T05:02:19;30.85;;;19.70;;
42904;SDS011;28550;51.228;4.528;2023-04-03T05:04:48;40.67;;;23.80;;
42904;SDS011;28550;51.228;4.528;2023-04-03T05:07:23;37.10;;;19.70;;
42904;SDS011;28550;51.228;4.528;2023-04-03T05:09:49;30.65;;;19.42;;
42904;SDS011;28550;51.228;4.528;2023-04-03T05:12:22;34.83;;;20.23;;
42904;SDS011;28550;51.228;4.528;2023-04-03T05:15:05;32.20;;;19.65;;
42904;SDS011;28550;51.228;4.528;2023-04-03T05:17:35;36.63;;;21.25;;
42904;SDS011;28550;51.228;4.528;2023-04-03T05:20:01;36.10;;;20.65;;
42904;SDS011;28550;51.228;4.528;2023-04-03T05:25:06;34.05;;;20.38;;
42904;SDS011;28550;51.228;4.528;2023-04-03T05:27:37;34.00;;;22.48;;
42904;SDS011;28550;51.228;4.528;2023-04-03T05:30:13;35.97;;;22.05;;
42904;SDS011;28550;51.228;4.528;2023-04-03T05:32:44;35.88;;;21.40;;
42904;SDS011;28550;51.228;4.528;2023-04-03T05:35:13;37.78;;;22.45;;
42904;SDS011;28550;51.228;4.528;2023-04-03T05:37:42;36.10;;;22.25;;
42904;SDS011;28550;51.228;4.528;2023-04-03T05:42:44;40.20;;;22.98;;
42904;SDS011;28550;51.228;4.528;2023-04-03T05:45:13;35.67;;;21.58;;
42904;SDS011;28550;51.228;4.528;2023-04-03T05:51:20;36.58;;;21.58;;
42904;SDS011;28550;51.228;4.528;2023-04-03T05:54:22;33.45;;;22.63;;
42904;SDS011;28550;51.228;4.528;2023-04-03T05:56:50;36.22;;;22.80;;
42904;SDS011;28550;51.228;4.528;2023-04-03T05:59:16;34.88;;;23.00;;
42904;SDS011;28550;51.228;4.528;2023-04-03T06:01:44;41.72;;;23.40;;
42904;SDS011;28550;51.228;4.528;2023-04-03T06:04:23;38.42;;;22.90;;
42904;SDS011;28550;51.228;4.528;2023-04-03T06:10:02;42.17;;;24.05;;
42904;SDS011;28550;51.228;4.528;2023-04-03T06:12:29;50.45;;;28.90;;
42904;SDS011;28550;51.228;4.528;2023-04-03T06:14:55;45.22;;;29.02;;
42904;SDS011;28550;51.228;4.528;2023-04-03T06:17:29;47.13;;;25.63;;
42904;SDS011;28550;51.228;4.528;2023-04-03T06:23:10;23.77;;;15.45;;
42904;SDS011;28550;51.228;4.528;2023-04-03T06:25:36;17.92;;;13.05;;
42904;SDS011;28550;51.228;4.528;2023-04-03T06:28:23;21.88;;;12.43;;
42904;SDS011;28550;51.228;4.528;2023-04-03T06:30:54;19.60;;;12.90;;
42904;SDS011;28550;51.228;4.528;2023-04-03T06:33:37;17.08;;;10.90;;
42904;SDS011;28550;51.228;4.528;2023-04-03T06:39:13;12.40;;;9.10;;
42904;SDS011;28550;51.228;4.528;2023-04-03T06:41:52;14.48;;;10.18;;
42904;SDS011;28550;51.228;4.528;2023-04-03T06:47:36;20.30;;;13.13;;
42904;SDS011;28550;51.228;4.528;2023-04-03T06:50:27;26.38;;;16.27;;
42904;SDS011;28550;51.228;4.528;2023-04-03T06:52:58;17.23;;;11.45;;
42904;SDS011;28550;51.228;4.528;2023-04-03T06:55:37;17.30;;;10.55;;
42904;SDS011;28550;51.228;4.528;2023-04-03T06:58:12;15.57;;;7.80;;
42904;SDS011;28550;51.228;4.528;2023-04-03T07:00:51;14.82;;;8.70;;
42904;SDS011;28550;51.228;4.528;2023-04-03T07:11:28;12.30;;;7.10;;
42904;SDS011;28550;51.228;4.528;2023-04-03T07:14:18;7.60;;;5.97;;
42904;SDS011;28550;51.228;4.528;2023-04-03T07:17:02;13.85;;;7.18;;
42904;SDS011;28550;51.228;4.528;2023-04-03T07:19:39;12.18;;;5.75;;
42904;SDS011;28550;51.228;4.528;2023-04-03T07:25:32;7.28;;;5.30;;
42904;SDS011;28550;51.228;4.528;2023-04-03T07:28:39;8.45;;;5.75;;
42904;SDS011;28550;51.228;4.528;2023-04-03T07:34:40;7.35;;;5.13;;
42904;SDS011;28550;51.228;4.528;2023-04-03T07:37:06;7.70;;;5.55;;
42904;SDS011;28550;51.228;4.528;2023-04-03T07:39:58;9.27;;;5.10;;
42904;SDS011;28550;51.228;4.528;2023-04-03T07:42:25;9.13;;;4.82;;
42904;SDS011;28550;51.228;4.528;2023-04-03T07:44:53;7.57;;;4.40;;
42904;SDS011;28550;51.228;4.528;2023-04-03T08:12:19;7.15;;;3.88;;
42904;SDS011;28550;51.228;4.528;2023-04-03T08:15:24;4.25;;;3.50;;
42904;SDS011;28550;51.228;4.528;2023-04-03T08:17:52;10.90;;;3.95;;
42904;SDS011;28550;51.228;4.528;2023-04-03T08:27:38;14.25;;;3.70;;
42904;SDS011;28550;51.228;4.528;2023-04-03T08:31:25;16.73;;;4.38;;
42904;SDS011;28550;51.228;4.528;2023-04-03T08:33:44;5.55;;;2.90;;
42904;SDS011;28550;51.228;4.528;2023-04-03T08:49:10;9.15;;;3.38;;
42904;SDS011;28550;51.228;4.528;2023-04-03T09:17:51;5.32;;;2.80;;
42904;SDS011;28550;51.228;4.528;2023-04-03T09:24:02;6.20;;;2.75;;
42904;SDS011;28550;51.228;4.528;2023-04-03T09:30:19;9.80;;;3.00;;
42904;SDS011;28550;51.228;4.528;2023-04-03T09:33:35;7.43;;;2.85;;
42904;SDS011;28550;51.228;4.528;2023-04-03T09:37:04;8.32;;;2.67;;
42904;SDS011;28550;51.228;4.528;2023-04-03T09:39:54;5.18;;;2.15;;
42904;SDS011;28550;51.228;4.528;2023-04-03T09:45:36;4.00;;;2.67;;
42904;SDS011;28550;51.228;4.528;2023-04-03T09:48:32;5.40;;;2.38;;
42904;SDS011;28550;51.228;4.528;2023-04-03T09:51:36;5.82;;;2.40;;
42904;SDS011;28550;51.228;4.528;2023-04-03T09:54:52;7.45;;;2.95;;
42904;SDS011;28550;51.228;4.528;2023-04-03T09:57:17;11.05;;;2.97;;
42904;SDS011;28550;51.228;4.528;2023-04-03T10:03:36;6.72;;;2.50;;
42904;SDS011;28550;51.228;4.528;2023-04-03T10:46:08;5.80;;;1.60;;
42904;SDS011;28550;51.228;4.528;2023-04-03T10:54:12;6.20;;;2.00;;
42904;SDS011;28550;51.228;4.528;2023-04-03T10:56:50;10.18;;;2.33;;
42904;SDS011;28550;51.228;4.528;2023-04-03T11:02:51;21.02;;;5.00;;
42904;SDS011;28550;51.228;4.528;2023-04-03T11:11:34;27.52;;;5.15;;
42904;SDS011;28550;51.228;4.528;2023-04-03T11:14:26;4.78;;;1.90;;
42904;SDS011;28550;51.228;4.528;2023-04-03T11:26:30;5.55;;;1.30;;
42904;SDS011;28550;51.228;4.528;2023-04-03T11:35:47;3.78;;;1.60;;
42904;SDS011;28550;51.228;4.528;2023-04-03T11:44:39;6.38;;;1.60;;
42904;SDS011;28550;51.228;4.528;2023-04-03T11:47:43;6.60;;;2.30;;
42904;SDS011;28550;51.228;4.528;2023-04-03T11:55:51;9.52;;;1.80;;
42904;SDS011;28550;51.228;4.528;2023-04-03T11:58:22;4.32;;;2.30;;
42904;SDS011;28550;51.228;4.528;2023-04-03T12:01:42;7.00;;;2.10;;
42904;SDS011;28550;51.228;4.528;2023-04-03T12:04:13;3.92;;;1.83;;
42904;SDS011;28550;51.228;4.528;2023-04-03T12:09:58;3.70;;;1.33;;
42904;SDS011;28550;51.228;4.528;2023-04-03T12:12:31;5.72;;;1.63;;
42904;SDS011;28550;51.228;4.528;2023-04-03T12:22:12;3.60;;;1.92;;
42904;SDS011;28550;51.228;4.528;2023-04-03T12:24:47;3.35;;;1.55;;
42904;SDS011;28550;51.228;4.528;2023-04-03T12:27:52;2.50;;;1.40;;
42904;SDS011;28550;51.228;4.528;2023-04-03T12:39:13;7.88;;;2.33;;
42904;SDS011;28550;51.228;4.528;2023-04-03T12:51:45;6.70;;;1.52;;
42904;SDS011;28550;51.228;4.528;2023-04-03T12:57:17;32.67;;;6.03;;
42904;SDS011;28550;51.228;4.528;2023-04-03T13:02:48;7.75;;;1.73;;
42904;SDS011;28550;51.228;4.528;2023-04-03T13:05:16;6.53;;;2.17;;
42904;SDS011;28550;51.228;4.528;2023-04-03T13:08:30;31.48;;;7.18;;
42904;SDS011;28550;51.228;4.528;2023-04-03T13:11:23;96.40;;;13.55;;
42904;SDS011;28550;51.228;4.528;2023-04-03T13:16:59;6.43;;;1.90;;
42904;SDS011;28550;51.228;4.528;2023-04-03T13:20:13;22.85;;;5.40;;
42904;SDS011;28550;51.228;4.528;2023-04-03T13:25:46;16.75;;;2.85;;
42904;SDS011;28550;51.228;4.528;2023-04-03T13:31:23;194.60;;;27.83;;
42904;SDS011;28550;51.228;4.528;2023-04-03T13:39:56;13.02;;;1.95;;
42904;SDS011;28550;51.228;4.528;2023-04-03T13:43:02;6.53;;;1.90;;
42904;SDS011;28550;51.228;4.528;2023-04-03T13:51:48;7.57;;;1.83;;
42904;SDS011;28550;51.228;4.528;2023-04-03T13:54:46;6.95;;;1.45;;
42904;SDS011;28550;51.228;4.528;2023-04-03T14:03:30;1.63;;;1.23;;
42904;SDS011;28550;51.228;4.528;2023-04-03T14:06:15;4.32;;;1.58;;
42904;SDS011;28550;51.228;4.528;2023-04-03T14:08:53;34.67;;;4.65;;
42904;SDS011;28550;51.228;4.528;2023-04-03T14:11:28;7.43;;;3.17;;
42904;SDS011;28550;51.228;4.528;2023-04-03T14:13:57;12.88;;;2.97;;
42904;SDS011;28550;51.228;4.528;2023-04-03T14:16:28;14.55;;;2.88;;
42904;SDS011;28550;51.228;4.528;2023-04-03T14:19:04;5.53;;;1.85;;
42904;SDS011;28550;51.228;4.528;2023-04-03T14:21:31;5.47;;;1.60;;
42904;SDS011;28550;51.228;4.528;2023-04-03T14:23:59;6.25;;;1.70;;
42904;SDS011;28550;51.228;4.528;2023-04-03T14:26:25;17.40;;;2.97;;
42904;SDS011;28550;51.228;4.528;2023-04-03T14:32:14;3.67;;;1.63;;
42904;SDS011;28550;51.228;4.528;2023-04-03T14:40:51;4.32;;;1.50;;
42904;SDS011;28550;51.228;4.528;2023-04-03T14:43:19;3.08;;;1.60;;
42904;SDS011;28550;51.228;4.528;2023-04-03T14:45:48;5.50;;;1.85;;
42904;SDS011;28550;51.228;4.528;2023-04-03T14:48:20;2.10;;;1.58;;
42904;SDS011;28550;51.228;4.528;2023-04-03T14:50:48;6.82;;;2.10;;
42904;SDS011;28550;51.228;4.528;2023-04-03T14:53:15;3.58;;;1.95;;
42904;SDS011;28550;51.228;4.528;2023-04-03T14:55:43;2.55;;;1.70;;
42904;SDS011;28550;51.228;4.528;2023-04-03T14:58:15;5.77;;;1.50;;
42904;SDS011;28550;51.228;4.528;2023-04-03T15:00:46;5.97;;;1.83;;
42904;SDS011;28550;51.228;4.528;2023-04-03T15:03:28;2.53;;;1.77;;
42904;SDS011;28550;51.228;4.528;2023-04-03T15:09:00;4.57;;;2.17;;
42904;SDS011;28550;51.228;4.528;2023-04-03T15:11:28;3.17;;;1.50;;
42904;SDS011;28550;51.228;4.528;2023-04-03T15:14:00;2.40;;;1.52;;
42904;SDS011;28550;51.228;4.528;2023-04-03T15:16:31;2.35;;;1.63;;
42904;SDS011;28550;51.228;4.528;2023-04-03T15:19:03;2.90;;;1.70;;
42904;SDS011;28550;51.228;4.528;2023-04-03T15:21:48;4.55;;;2.17;;
42904;SDS011;28550;51.228;4.528;2023-04-03T15:24:33;25.60;;;3.40;;
42904;SDS011;28550;51.228;4.528;2023-04-03T15:27:13;2.47;;;1.70;;
42904;SDS011;28550;51.228;4.528;2023-04-03T15:29:46;17.02;;;2.63;;
42904;SDS011;28550;51.228;4.528;2023-04-03T15:32:32;11.73;;;2.38;;
42904;SDS011;28550;51.228;4.528;2023-04-03T15:34:59;10.55;;;3.15;;
42904;SDS011;28550;51.228;4.528;2023-04-03T15:37:26;3.80;;;1.85;;
42904;SDS011;28550;51.228;4.528;2023-04-03T15:39:54;6.55;;;2.85;;
42904;SDS011;28550;51.228;4.528;2023-04-03T15:42:26;6.78;;;2.55;;
42904;SDS011;28550;51.228;4.528;2023-04-03T15:44:57;13.43;;;3.17;;
42904;SDS011;28550;51.228;4.528;2023-04-03T15:47:24;3.28;;;2.03;;
42904;SDS011;28550;51.228;4.528;2023-04-03T15:52:50;10.20;;;2.53;;
42904;SDS011;28550;51.228;4.528;2023-04-03T15:55:21;19.02;;;3.53;;
42904;SDS011;28550;51.228;4.528;2023-04-03T15:57:50;7.32;;;2.28;;
42904;SDS011;28550;51.228;4.528;2023-04-03T16:00:26;8.43;;;2.20;;
42904;SDS011;28550;51.228;4.528;2023-04-03T16:03:02;4.10;;;2.05;;
42904;SDS011;28550;51.228;4.528;2023-04-03T16:05:31;4.53;;;2.17;;
42904;SDS011;28550;51.228;4.528;2023-04-03T16:07:58;4.03;;;1.85;;
42904;SDS011;28550;51.228;4.528;2023-04-03T16:10:28;3.65;;;2.45;;
42904;SDS011;28550;51.228;4.528;2023-04-03T16:12:54;5.15;;;2.30;;
42904;SDS011;28550;51.228;4.528;2023-04-03T16:15:34;7.97;;;2.53;;
42904;SDS011;28550;51.228;4.528;2023-04-03T16:18:03;4.60;;;3.10;;
42904;SDS011;28550;51.228;4.528;2023-04-03T16:20:30;3.55;;;2.17;;
42904;SDS011;28550;51.228;4.528;2023-04-03T16:23:05;6.72;;;2.25;;
42904;SDS011;28550;51.228;4.528;2023-04-03T16:25:51;3.83;;;2.35;;
42904;SDS011;28550;51.228;4.528;2023-04-03T16:29:03;8.40;;;2.17;;
42904;SDS011;28550;51.228;4.528;2023-04-03T16:31:42;7.93;;;2.65;;
42904;SDS011;28550;51.228;4.528;2023-04-03T16:34:17;3.95;;;2.30;;
42904;SDS011;28550;51.228;4.528;2023-04-03T16:36:42;5.13;;;3.00;;
42904;SDS011;28550;51.228;4.528;2023-04-03T16:39:16;9.52;;;2.90;;
42904;SDS011;28550;51.228;4.528;2023-04-03T16:41:41;3.63;;;2.72;;
42904;SDS011;28550;51.228;4.528;2023-04-03T16:44:07;10.52;;;2.83;;
42904;SDS011;28550;51.228;4.528;2023-04-03T16:46:33;4.57;;;2.88;;
42904;SDS011;28550;51.228;4.528;2023-04-03T16:49:07;5.75;;;2.58;;
42904;SDS011;28550;51.228;4.528;2023-04-03T16:55:32;4.80;;;2.58;;
42904;SDS011;28550;51.228;4.528;2023-04-03T16:57:59;7.78;;;2.30;;
42904;SDS011;28550;51.228;4.528;2023-04-03T17:00:43;5.63;;;2.50;;
42904;SDS011;28550;51.228;4.528;2023-04-03T17:03:09;7.47;;;2.80;;
42904;SDS011;28550;51.228;4.528;2023-04-03T17:05:35;5.25;;;2.60;;
42904;SDS011;28550;51.228;4.528;2023-04-03T17:08:01;4.25;;;2.30;;
42904;SDS011;28550;51.228;4.528;2023-04-03T17:10:30;5.60;;;2.20;;
42904;SDS011;28550;51.228;4.528;2023-04-03T17:12:56;7.10;;;2.67;;
42904;SDS011;28550;51.228;4.528;2023-04-03T17:18:27;13.77;;;2.72;;
42904;SDS011;28550;51.228;4.528;2023-04-03T17:21:48;6.22;;;2.45;;
42904;SDS011;28550;51.228;4.528;2023-04-03T17:24:14;5.93;;;2.40;;
42904;SDS011;28550;51.228;4.528;2023-04-03T17:26:46;3.35;;;2.15;;
42904;SDS011;28550;51.228;4.528;2023-04-03T17:29:12;4.68;;;2.25;;
42904;SDS011;28550;51.228;4.528;2023-04-03T17:31:38;6.55;;;2.90;;
42904;SDS011;28550;51.228;4.528;2023-04-03T17:34:12;5.80;;;2.92;;
42904;SDS011;28550;51.228;4.528;2023-04-03T17:36:38;5.45;;;3.03;;
42904;SDS011;28550;51.228;4.528;2023-04-03T17:39:05;3.35;;;2.58;;
42904;SDS011;28550;51.228;4.528;2023-04-03T17:41:34;6.38;;;3.20;;
42904;SDS011;28550;51.228;4.528;2023-04-03T17:44:00;5.20;;;3.00;;
42904;SDS011;28550;51.228;4.528;2023-04-03T17:46:26;4.70;;;3.25;;
42904;SDS011;28550;51.228;4.528;2023-04-03T17:48:53;10.35;;;3.60;;
42904;SDS011;28550;51.228;4.528;2023-04-03T17:51:26;6.63;;;3.30;;
42904;SDS011;28550;51.228;4.528;2023-04-03T17:53:52;4.35;;;3.47;;
42904;SDS011;28550;51.228;4.528;2023-04-03T17:56:24;10.55;;;3.38;;
42904;SDS011;28550;51.228;4.528;2023-04-03T17:59:05;4.88;;;2.60;;
42904;SDS011;28550;51.228;4.528;2023-04-03T18:01:52;6.65;;;3.03;;
42904;SDS011;28550;51.228;4.528;2023-04-03T18:04:22;7.40;;;3.83;;
42904;SDS011;28550;51.228;4.528;2023-04-03T18:06:55;5.53;;;2.80;;
42904;SDS011;28550;51.228;4.528;2023-04-03T18:12:23;7.82;;;3.58;;
42904;SDS011;28550;51.228;4.528;2023-04-03T18:14:58;4.47;;;3.03;;
42904;SDS011;28550;51.228;4.528;2023-04-03T18:17:27;7.53;;;2.95;;
42904;SDS011;28550;51.228;4.528;2023-04-03T18:20:11;7.45;;;2.70;;
42904;SDS011;28550;51.228;4.528;2023-04-03T18:22:45;5.22;;;2.28;;
42904;SDS011;28550;51.228;4.528;2023-04-03T18:25:11;6.95;;;2.75;;
42904;SDS011;28550;51.228;4.528;2023-04-03T18:27:38;6.50;;;2.78;;
42904;SDS011;28550;51.228;4.528;2023-04-03T18:30:23;8.23;;;2.67;;
42904;SDS011;28550;51.228;4.528;2023-04-03T18:32:58;7.93;;;2.60;;
42904;SDS011;28550;51.228;4.528;2023-04-03T18:39:03;5.22;;;2.90;;
42904;SDS011;28550;51.228;4.528;2023-04-03T18:41:44;5.93;;;2.40;;
42904;SDS011;28550;51.228;4.528;2023-04-03T18:47:01;3.30;;;2.33;;
42904;SDS011;28550;51.228;4.528;2023-04-03T18:52:49;5.43;;;2.95;;
42904;SDS011;28550;51.228;4.528;2023-04-03T18:55:17;4.20;;;2.15;;
42904;SDS011;28550;51.228;4.528;2023-04-03T18:57:44;5.45;;;2.85;;
42904;SDS011;28550;51.228;4.528;2023-04-03T19:00:11;4.75;;;2.60;;
42904;SDS011;28550;51.228;4.528;2023-04-03T19:02:50;7.07;;;3.47;;
42904;SDS011;28550;51.228;4.528;2023-04-03T19:05:19;9.68;;;4.15;;
42904;SDS011;28550;51.228;4.528;2023-04-03T19:07:46;6.43;;;2.90;;
42904;SDS011;28550;51.228;4.528;2023-04-03T19:10:15;13.70;;;3.78;;
42904;SDS011;28550;51.228;4.528;2023-04-03T19:12:42;7.40;;;4.00;;
42904;SDS011;28550;51.228;4.528;2023-04-03T19:15:10;6.90;;;3.75;;
42904;SDS011;28550;51.228;4.528;2023-04-03T19:18:00;6.82;;;3.60;;
42904;SDS011;28550;51.228;4.528;2023-04-03T19:20:26;11.02;;;4.13;;
42904;SDS011;28550;51.228;4.528;2023-04-03T19:22:59;7.20;;;3.83;;
42904;SDS011;28550;51.228;4.528;2023-04-03T19:25:40;10.10;;;4.78;;
42904;SDS011;28550;51.228;4.528;2023-04-03T19:28:05;9.70;;;3.90;;
42904;SDS011;28550;51.228;4.528;2023-04-03T19:30:31;5.47;;;3.20;;
42904;SDS011;28550;51.228;4.528;2023-04-03T19:33:09;7.20;;;3.03;;
42904;SDS011;28550;51.228;4.528;2023-04-03T19:35:45;5.57;;;3.25;;
42904;SDS011;28550;51.228;4.528;2023-04-03T19:38:26;4.10;;;2.72;;
42904;SDS011;28550;51.228;4.528;2023-04-03T19:40:52;4.88;;;3.20;;
42904;SDS011;28550;51.228;4.528;2023-04-03T19:43:31;8.88;;;3.45;;
42904;SDS011;28550;51.228;4.528;2023-04-03T19:45:56;9.05;;;3.55;;
42904;SDS011;28550;51.228;4.528;2023-04-03T19:48:35;7.80;;;3.35;;
42904;SDS011;28550;51.228;4.528;2023-04-03T19:51:42;9.87;;;3.33;;
42904;SDS011;28550;51.228;4.528;2023-04-03T19:54:07;6.32;;;3.03;;
42904;SDS011;28550;51.228;4.528;2023-04-03T19:56:55;8.07;;;4.03;;
42904;SDS011;28550;51.228;4.528;2023-04-03T19:59:40;10.93;;;3.88;;
42904;SDS011;28550;51.228;4.528;2023-04-03T20:02:05;6.75;;;4.10;;
42904;SDS011;28550;51.228;4.528;2023-04-03T20:04:31;6.78;;;3.13;;
42904;SDS011;28550;51.228;4.528;2023-04-03T20:06:57;5.10;;;3.65;;
42904;SDS011;28550;51.228;4.528;2023-04-03T20:09:26;8.20;;;3.28;;
42904;SDS011;28550;51.228;4.528;2023-04-03T20:11:58;7.90;;;4.35;;
42904;SDS011;28550;51.228;4.528;2023-04-03T20:14:25;7.30;;;4.00;;
42904;SDS011;28550;51.228;4.528;2023-04-03T20:16:51;6.93;;;3.70;;
42904;SDS011;28550;51.228;4.528;2023-04-03T20:19:17;8.52;;;3.42;;
42904;SDS011;28550;51.228;4.528;2023-04-03T20:21:46;7.38;;;3.28;;
42904;SDS011;28550;51.228;4.528;2023-04-03T20:24:15;4.55;;;3.03;;
42904;SDS011;28550;51.228;4.528;2023-04-03T20:26:53;10.93;;;3.50;;
42904;SDS011;28550;51.228;4.528;2023-04-03T20:29:26;8.20;;;4.53;;
42904;SDS011;28550;51.228;4.528;2023-04-03T20:31:55;8.68;;;3.42;;
42904;SDS011;28550;51.228;4.528;2023-04-03T20:34:23;7.50;;;3.35;;
42904;SDS011;28550;51.228;4.528;2023-04-03T20:36:52;9.25;;;4.82;;
42904;SDS011;28550;51.228;4.528;2023-04-03T20:39:19;8.90;;;4.70;;
42904;SDS011;28550;51.228;4.528;2023-04-03T20:41:48;6.30;;;3.58;;
42904;SDS011;28550;51.228;4.528;2023-04-03T20:44:15;5.93;;;3.50;;
42904;SDS011;28550;51.228;4.528;2023-04-03T20:46:57;7.75;;;3.70;;
42904;SDS011;28550;51.228;4.528;2023-04-03T20:49:23;8.57;;;4.07;;
42904;SDS011;28550;51.228;4.528;2023-04-03T20:51:49;6.10;;;3.85;;
42904;SDS011;28550;51.228;4.528;2023-04-03T20:54:51;5.72;;;3.92;;
42904;SDS011;28550;51.228;4.528;2023-04-03T21:03:44;5.75;;;2.92;;